Time;durP1;ratioP1;P1;durP2;ratioP2;P2;SDS_P1;SDS_P2;PMS_P1;PMS_P2;Temp;Humidity;BMP_temperature;BMP_pressure;BME280_temperature;BME280_humidity;BME280_pressure;Samples;Min_cycle;Max_cycle;Signal;HPM_P1;HPM_P2
2022/06/09 00:00:07;;;;;;;4.75;1.58;;;;;;;;;;4925551;29;20499;-76
2022/06/09 00:02:35;;;;;;;1.77;1.50;;;15.50;99.80;;;;;;4930460;29;20027;-76
2022/06/09 00:05:01;;;;;;;6.28;1.63;;;;;;;;;;4933849;29;20035;-77
2022/06/09 00:07:27;;;;;;;4.53;1.83;;;;;;;;;;4929283;29;20090;-77
2022/06/09 00:10:07;;;;;;;1.40;1.20;;;;;;;;;;4919280;29;20090;-76
2022/06/09 00:12:33;;;;;;;1.33;1.20;;;;;;;;;;4929989;28;20028;-77
2022/06/09 00:15:01;;;;;;;2.20;2.00;;;15.50;98.20;;;;;;4928226;29;20074;-77
2022/06/09 00:17:27;;;;;;;1.83;1.25;;;;;;;;;;4929171;29;20043;-77
2022/06/09 00:19:53;;;;;;;1.50;1.40;;;;;;;;;;4926036;29;20150;-77
2022/06/09 00:22:19;;;;;;;1.20;1.10;;;;;;;;;;4927000;29;20115;-76
2022/06/09 00:24:45;;;;;;;5.43;1.35;;;;;;;;;;4928646;29;20043;-77
2022/06/09 00:27:12;;;;;;;2.25;1.35;;;;;;;;;;4930416;29;20094;-77
2022/06/09 00:29:38;;;;;;;1.23;1.13;;;;;;;;;;4925250;29;20052;-77
2022/06/09 00:32:04;;;;;;;1.23;1.13;;;15.50;99.00;;;;;;4928356;29;20020;-78
2022/06/09 00:34:30;;;;;;;1.95;1.13;;;15.60;99.90;;;;;;4930595;29;20038;-77
2022/06/09 00:36:55;;;;;;;0.82;0.82;;;15.30;99.90;;;;;;4927342;29;20023;-76
2022/06/09 00:39:22;;;;;;;1.08;1.08;;;;;;;;;;4928672;29;20038;-78
2022/06/09 00:41:47;;;;;;;4.93;1.38;;;;;;;;;;4926627;29;20106;-77
2022/06/09 00:44:21;;;;;;;1.50;1.38;;;;;;;;;;4928946;29;20412;-76
2022/06/09 00:46:55;;;;;;;1.73;1.30;;;;;;;;;;4928877;29;20532;-77
2022/06/09 00:50:01;;;;;;;3.45;1.50;;;15.00;98.90;;;;;;4925821;29;20161;-77
2022/06/09 00:52:29;;;;;;;1.63;1.20;;;;;;;;;;4926544;28;20035;-77
2022/06/09 00:54:58;;;;;;;1.33;1.23;;;;;;;;;;4927697;29;20291;-78
2022/06/09 00:57:34;;;;;;;2.05;1.35;;;;;;;;;;4928398;29;20036;-77
2022/06/09 01:00:03;;;;;;;1.15;1.05;;;;;;;;;;4925401;29;20078;-77
2022/06/09 01:02:30;;;;;;;1.30;1.20;;;;;;;;;;4927474;29;20035;-78
2022/06/09 01:04:56;;;;;;;2.50;1.50;;;;;;;;;;4926070;29;20433;-77
2022/06/09 01:07:25;;;;;;;2.78;1.40;;;;;;;;;;4931394;29;20032;-77
2022/06/09 01:09:51;;;;;;;7.63;1.63;;;;;;;;;;4925789;28;20428;-77
2022/06/09 01:12:40;;;;;;;3.35;1.33;;;;;;;;;;4925614;29;20110;-77
2022/06/09 01:15:14;;;;;;;1.73;1.38;;;15.20;99.90;;;;;;4929535;29;20051;-77
2022/06/09 01:17:59;;;;;;;1.40;1.30;;;;;;;;;;4929413;29;20576;-77
2022/06/09 01:20:36;;;;;;;2.42;1.27;;;;;;;;;;4923212;29;20051;-77
2022/06/09 01:23:21;;;;;;;2.60;1.90;;;;;;;;;;4928244;29;20030;-77
2022/06/09 01:26:02;;;;;;;1.73;1.48;;;15.40;99.70;;;;;;4927458;29;20055;-77
2022/06/09 01:28:28;;;;;;;1.20;1.10;;;;;;;;;;4927711;29;20122;-77
2022/06/09 01:31:01;;;;;;;1.40;1.30;;;;;;;;;;4924311;29;20118;-77
2022/06/09 01:33:40;;;;;;;2.20;1.30;;;15.50;98.80;;;;;;4928199;29;20024;-78
2022/06/09 01:36:15;;;;;;;1.50;1.40;;;;;;;;;;4925211;29;20038;-77
2022/06/09 01:38:47;;;;;;;4.22;2.20;;;;;;;;;;4929684;29;20576;-77
2022/06/09 01:41:13;;;;;;;5.20;1.85;;;;;;;;;;4924019;29;20050;-77
2022/06/09 01:43:40;;;;;;;1.40;1.30;;;;;;;;;;4927779;29;20020;-78
2022/06/09 01:46:08;;;;;;;4.40;1.40;;;;;;;;;;4926942;29;20497;-77
2022/06/09 01:48:35;;;;;;;7.72;1.70;;;;;;;;;;4927965;29;20036;-76
2022/06/09 01:51:00;;;;;;;2.70;2.00;;;;;;;;;;4923122;29;20567;-77
2022/06/09 01:53:32;;;;;;;3.33;1.75;;;;;;;;;;4930475;29;20024;-77
2022/06/09 01:56:08;;;;;;;2.05;1.55;;;;;;;;;;4926175;29;20032;-76
2022/06/09 01:58:43;;;;;;;2.25;1.75;;;;;;;;;;4934561;29;20119;-77
2022/06/09 02:01:11;;;;;;;15.02;4.18;;;;;;;;;;4927649;29;20039;-77
2022/06/09 02:03:39;;;;;;;1.73;1.33;;;;;;;;;;4930619;28;20083;-77
2022/06/09 02:06:06;;;;;;;4.75;2.25;;;15.80;95.70;;;;;;4931491;29;20718;-77
2022/06/09 02:08:35;;;;;;;6.47;1.77;;;;;;;;;;4932051;29;20039;-77
2022/06/09 02:11:06;;;;;;;3.45;2.20;;;15.90;95.80;;;;;;4927251;29;20517;-77
2022/06/09 02:13:34;;;;;;;1.77;1.52;;;;;;;;;;4930418;29;20068;-77
2022/06/09 02:16:02;;;;;;;1.98;1.65;;;;;;;;;;4929829;29;20067;-78
2022/06/09 02:18:30;;;;;;;4.88;1.67;;;;;;;;;;4929796;29;20039;-77
2022/06/09 02:21:02;;;;;;;5.43;1.50;;;;;;;;;;4927941;29;20052;-78
2022/06/09 02:23:28;;;;;;;3.38;1.58;;;;;;;;;;4931094;29;20023;-76
2022/06/09 02:25:54;;;;;;;5.15;3.33;;;;;;;;;;4932160;29;20024;-77
2022/06/09 02:28:21;;;;;;;7.90;2.00;;;;;;;;;;4930478;29;20406;-76
2022/06/09 02:30:47;;;;;;;7.20;1.98;;;;;;;;;;4927081;29;20031;-77
2022/06/09 02:33:13;;;;;;;4.50;2.25;;;;;;;;;;4925281;29;20040;-77
2022/06/09 02:35:41;;;;;;;3.03;2.75;;;;;;;;;;4931828;29;20059;-77
2022/06/09 02:38:07;;;;;;;8.50;2.25;;;;;;;;;;4936303;29;20400;-78
2022/06/09 02:40:33;;;;;;;4.53;1.83;;;;;;;;;;4928795;29;20045;-77
2022/06/09 02:43:00;;;;;;;5.13;2.80;;;;;;;;;;4928257;29;20665;-77
2022/06/09 02:45:27;;;;;;;5.07;2.03;;;15.60;99.90;;;;;;4930630;29;20028;-77
2022/06/09 02:47:53;;;;;;;4.13;2.00;;;;;;;;;;4930621;29;20905;-77
2022/06/09 02:50:19;;;;;;;9.95;3.35;;;;;;;;;;4929399;29;20281;-76
2022/06/09 02:52:45;;;;;;;2.35;1.30;;;;;;;;;;4932079;28;20038;-78
2022/06/09 02:55:12;;;;;;;1.75;1.65;;;;;;;;;;4928632;29;20437;-77
2022/06/09 02:57:38;;;;;;;3.63;2.20;;;;;;;;;;4930592;29;20050;-77
2022/06/09 03:00:06;;;;;;;5.60;2.10;;;;;;;;;;4927266;29;20114;-76
2022/06/09 03:02:32;;;;;;;1.70;1.60;;;;;;;;;;4926287;29;20024;-77
2022/06/09 03:04:58;;;;;;;8.23;2.43;;;;;;;;;;4930951;29;20126;-77
2022/06/09 03:07:25;;;;;;;4.55;2.20;;;;;;;;;;4930846;28;20054;-77
2022/06/09 03:09:51;;;;;;;7.35;2.10;;;;;;;;;;4930388;28;20035;-77
2022/06/09 03:12:17;;;;;;;3.83;2.83;;;;;;;;;;4928209;29;20027;-77
2022/06/09 03:14:44;;;;;;;4.95;2.08;;;;;;;;;;4929298;29;20056;-77
2022/06/09 03:17:09;;;;;;;2.95;1.73;;;15.60;95.50;;;;;;4934225;29;20114;-78
2022/06/09 03:19:36;;;;;;;10.30;2.65;;;;;;;;;;4926599;29;20122;-77
2022/06/09 03:22:02;;;;;;;5.47;2.15;;;;;;;;;;4929176;29;20024;-77
2022/06/09 03:24:28;;;;;;;3.58;1.60;;;;;;;;;;4928978;29;20024;-78
2022/06/09 03:26:54;;;;;;;2.97;1.70;;;15.70;99.90;;;;;;4932120;29;20414;-77
2022/06/09 03:29:20;;;;;;;3.78;1.50;;;;;;;;;;4927300;29;20048;-77
2022/06/09 03:31:49;;;;;;;2.90;1.40;;;;;;;;;;4929408;29;20028;-75
2022/06/09 03:34:15;;;;;;;8.70;4.07;;;;;;;;;;4928611;29;20050;-77
2022/06/09 03:36:43;;;;;;;1.45;1.35;;;;;;;;;;4929965;29;20417;-77
2022/06/09 03:39:09;;;;;;;3.60;2.03;;;;;;;;;;4928690;29;20090;-77
2022/06/09 03:41:35;;;;;;;7.20;1.70;;;;;;;;;;4927045;29;20019;-77
2022/06/09 03:44:01;;;;;;;6.25;1.58;;;;;;;;;;4929891;29;20662;-76
2022/06/09 03:46:27;;;;;;;7.93;2.33;;;;;;;;;;4929345;29;20171;-77
2022/06/09 03:48:53;;;;;;;16.98;3.13;;;;;;;;;;4928966;29;20220;-78
2022/06/09 03:51:19;;;;;;;7.82;1.80;;;;;;;;;;4924767;29;20028;-77
2022/06/09 03:53:45;;;;;;;4.10;1.80;;;;;;;;;;4934429;29;20110;-77
2022/06/09 03:56:16;;;;;;;2.95;2.28;;;;;;;;;;4930099;29;20055;-77
2022/06/09 03:58:42;;;;;;;12.38;3.33;;;15.50;98.60;;;;;;4932174;29;20137;-77
2022/06/09 04:01:13;;;;;;;2.17;1.67;;;;;;;;;;4924404;29;20023;-77
2022/06/09 04:03:39;;;;;;;2.28;1.33;;;;;;;;;;4929223;29;20028;-77
2022/06/09 04:06:04;;;;;;;6.95;3.38;;;15.40;99.90;;;;;;4933526;29;20031;-76
2022/06/09 04:08:33;;;;;;;4.18;2.55;;;;;;;;;;4930693;29;20054;-77
2022/06/09 04:10:59;;;;;;;4.13;1.73;;;;;;;;;;4926804;29;20024;-77
2022/06/09 04:13:25;;;;;;;6.38;1.70;;;;;;;;;;4929815;29;20481;-77
2022/06/09 04:15:50;;;;;;;20.65;2.65;;;15.30;99.90;;;;;;4929911;28;20052;-76
2022/06/09 04:18:16;;;;;;;2.97;1.80;;;;;;;;;;4929715;29;20059;-76
2022/06/09 04:20:42;;;;;;;15.30;3.28;;;;;;;;;;4925557;29;20098;-76
2022/06/09 04:23:08;;;;;;;3.13;2.85;;;;;;;;;;4928868;29;20497;-77
2022/06/09 04:25:34;;;;;;;7.15;3.38;;;;;;;;;;4927554;29;20035;-77
2022/06/09 04:28:00;;;;;;;1.38;1.27;;;;;;;;;;4929112;29;20062;-77
2022/06/09 04:30:26;;;;;;;1.48;1.38;;;;;;;;;;4930421;29;20023;-77
2022/06/09 04:32:53;;;;;;;3.92;1.13;;;;;;;;;;4926476;29;20027;-77
2022/06/09 04:35:19;;;;;;;6.40;1.85;;;;;;;;;;4929549;29;20030;-77
2022/06/09 04:38:01;;;;;;;3.92;1.83;;;;;;;;;;4931934;29;20051;-78
2022/06/09 04:40:33;;;;;;;1.50;1.40;;;;;;;;;;4925145;29;20032;-76
2022/06/09 04:42:59;;;;;;;1.60;1.50;;;;;;;;;;4924051;29;20079;-77
2022/06/09 04:45:25;;;;;;;4.20;2.22;;;;;;;;;;4927798;29;20558;-77
2022/06/09 04:47:51;;;;;;;3.75;1.92;;;;;;;;;;4928966;29;20114;-76
2022/06/09 04:50:18;;;;;;;3.60;3.20;;;;;;;;;;4926783;29;20123;-77
2022/06/09 04:52:44;;;;;;;1.23;1.13;;;;;;;;;;4925988;29;20082;-77
2022/06/09 04:55:10;;;;;;;2.00;1.52;;;;;;;;;;4925940;29;20307;-78
2022/06/09 04:57:36;;;;;;;6.40;2.28;;;15.70;99.90;;;;;;4928242;29;20090;-77
2022/06/09 05:00:03;;;;;;;8.35;2.00;;;;;;;;;;4928796;28;20489;-76
2022/06/09 05:02:29;;;;;;;4.78;1.75;;;;;;;;;;4926974;29;20501;-77
2022/06/09 05:04:55;;;;;;;7.88;2.35;;;;;;;;;;4930403;29;20030;-75
2022/06/09 05:07:21;;;;;;;3.00;2.15;;;;;;;;;;4930114;29;20027;-77
2022/06/09 05:09:47;;;;;;;7.22;1.90;;;;;;;;;;4922242;28;20042;-77
2022/06/09 05:12:13;;;;;;;6.40;2.35;;;;;;;;;;4924042;29;20066;-77
2022/06/09 05:14:39;;;;;;;2.97;1.80;;;;;;;;;;4927709;29;20466;-76
2022/06/09 05:17:05;;;;;;;5.97;2.10;;;;;;;;;;4929249;29;20028;-77
2022/06/09 05:19:31;;;;;;;2.00;1.40;;;;;;;;;;4926543;29;20039;-77
2022/06/09 05:21:57;;;;;;;2.80;1.90;;;;;;;;;;4924331;29;20053;-77
2022/06/09 05:24:23;;;;;;;5.20;2.60;;;;;;;;;;4924514;29;20039;-77
2022/06/09 05:26:49;;;;;;;4.07;1.77;;;;;;;;;;4924790;29;20035;-78
2022/06/09 05:29:16;;;;;;;4.30;2.35;;;;;;;;;;4924479;29;20124;-77
2022/06/09 05:31:43;;;;;;;3.10;1.70;;;;;;;;;;4920069;29;20031;-76
2022/06/09 05:34:10;;;;;;;3.85;2.60;;;;;;;;;;4924918;29;20596;-77
2022/06/09 05:36:36;;;;;;;6.03;2.23;;;;;;;;;;4923804;29;20099;-74
2022/06/09 05:47:19;;;;;;;9.57;1.92;;;;;;;;;;4925780;29;20204;-74
2022/06/09 05:49:47;;;;;;;3.85;1.55;;;;;;;;;;4921817;29;20127;-75
2022/06/09 05:52:13;;;;;;;5.40;2.10;;;;;;;;;;4924184;29;20046;-74
2022/06/09 05:54:39;;;;;;;3.40;1.92;;;;;;;;;;4924557;29;20516;-74
2022/06/09 05:57:05;;;;;;;7.30;2.50;;;;;;;;;;4927085;29;20035;-74
2022/06/09 05:59:31;;;;;;;10.85;2.03;;;;;;;;;;4924972;29;20039;-75
2022/06/09 06:01:57;;;;;;;7.03;2.20;;;;;;;;;;4925435;29;20408;-75
2022/06/09 06:04:23;;;;;;;4.18;1.73;;;;;;;;;;4926341;29;20114;-75
2022/06/09 06:06:49;;;;;;;1.65;1.50;;;;;;;;;;4926401;29;20032;-75
2022/06/09 06:09:16;;;;;;;13.30;2.50;;;;;;;;;;4921323;29;20054;-75
2022/06/09 06:11:43;;;;;;;8.70;4.18;;;;;;;;;;4925550;29;20405;-74
2022/06/09 06:14:09;;;;;;;6.05;2.60;;;;;;;;;;4925582;29;20031;-74
2022/06/09 06:16:36;;;;;;;4.57;2.33;;;;;;;;;;4925839;29;20036;-75
2022/06/09 06:19:02;;;;;;;2.35;1.35;;;;;;;;;;4925317;29;20066;-75
2022/06/09 06:21:28;;;;;;;2.92;1.95;;;;;;;;;;4922382;29;20042;-74
2022/06/09 06:23:55;;;;;;;3.60;1.50;;;;;;;;;;4926186;29;20044;-61
2022/06/09 06:26:21;;;;;;;2.73;1.73;;;;;;;;;;4925686;29;20106;-61
2022/06/09 06:28:47;;;;;;;3.03;1.65;;;;;;;;;;4923652;29;20303;-60
2022/06/09 06:31:13;;;;;;;2.35;1.63;;;;;;;;;;4920773;29;20138;-61
2022/06/09 06:33:39;;;;;;;2.00;1.90;;;;;;;;;;4916837;29;20090;-60
2022/06/09 06:36:05;;;;;;;4.63;2.10;;;16.20;94.40;;;;;;4924752;29;20072;-60
2022/06/09 06:38:31;;;;;;;4.47;2.45;;;;;;;;;;4923089;29;20587;-61
2022/06/09 06:40:57;;;;;;;4.00;1.55;;;;;;;;;;4921609;29;20031;-62
2022/06/09 06:43:24;;;;;;;4.20;2.13;;;;;;;;;;4923792;29;20031;-60
2022/06/09 06:45:49;;;;;;;1.50;1.40;;;16.40;98.90;;;;;;4927728;29;20031;-61
2022/06/09 06:48:15;;;;;;;9.27;1.83;;;16.60;94.20;;;;;;4928641;29;20036;-61
2022/06/09 06:50:42;;;;;;;7.78;1.98;;;16.60;93.90;;;;;;4925575;29;20035;-61
2022/06/09 06:53:12;;;;;;;1.52;1.42;;;;;;;;;;4925378;29;20078;-61
2022/06/09 06:55:38;;;;;;;3.35;2.22;;;;;;;;;;4928262;29;20035;-62
2022/06/09 06:58:04;;;;;;;2.10;1.83;;;;;;;;;;4929017;29;20034;-62
2022/06/09 07:00:30;;;;;;;2.78;1.67;;;;;;;;;;4924861;29;20024;-61
2022/06/09 07:02:56;;;;;;;4.03;1.58;;;16.80;96.70;;;;;;4927871;29;20505;-62
2022/06/09 07:05:22;;;;;;;1.77;1.40;;;17.00;99.90;;;;;;4928925;29;20082;-61
2022/06/09 07:07:49;;;;;;;7.10;3.15;;;;;;;;;;4928989;29;20108;-62
2022/06/09 07:10:15;;;;;;;4.25;1.25;;;;;;;;;;4923802;29;20050;-61
2022/06/09 07:12:41;;;;;;;1.65;1.10;;;17.00;92.10;;;;;;4927085;29;20028;-61
2022/06/09 07:15:09;;;;;;;1.65;1.15;;;;;;;;;;4927396;29;20052;-73
2022/06/09 07:17:35;;;;;;;1.08;1.02;;;;;;;;;;4927231;29;20063;-74
2022/06/09 07:20:01;;;;;;;1.95;1.27;;;;;;;;;;4924151;29;20118;-75
2022/06/09 07:22:27;;;;;;;2.40;1.20;;;;;;;;;;4922642;29;20063;-75
2022/06/09 07:24:55;;;;;;;5.40;1.40;;;;;;;;;;4924550;29;20044;-75
2022/06/09 07:27:22;;;;;;;1.13;0.98;;;;;;;;;;4928564;29;20397;-74
2022/06/09 07:29:48;;;;;;;1.20;1.10;;;;;;;;;;4924568;29;20047;-73
2022/06/09 07:32:14;;;;;;;1.98;1.20;;;;;;;;;;4926938;29;20024;-73
2022/06/09 07:34:40;;;;;;;2.38;1.00;;;;;;;;;;4928166;29;20409;-73
2022/06/09 07:37:06;;;;;;;3.00;1.30;;;17.10;91.60;;;;;;4928101;29;20493;-74
2022/06/09 07:39:33;;;;;;;2.35;1.20;;;;;;;;;;4924355;29;20050;-75
2022/06/09 07:41:59;;;;;;;1.15;0.88;;;;;;;;;;4922504;29;20046;-74
2022/06/09 07:44:25;;;;;;;2.70;1.63;;;;;;;;;;4932685;29;21461;-74
2022/06/09 07:46:51;;;;;;;3.72;1.02;;;;;;;;;;4927933;29;20023;-75
2022/06/09 07:49:17;;;;;;;10.05;2.67;;;;;;;;;;4923317;29;20946;-75
2022/06/09 07:51:43;;;;;;;6.07;1.55;;;;;;;;;;4923276;29;20038;-74
2022/06/09 07:54:09;;;;;;;1.30;1.17;;;;;;;;;;4926301;29;20035;-73
2022/06/09 07:56:36;;;;;;;1.63;1.40;;;;;;;;;;4927114;29;20798;-75
2022/06/09 07:59:02;;;;;;;3.75;1.30;;;;;;;;;;4927683;29;20412;-75
2022/06/09 08:01:29;;;;;;;2.83;1.20;;;17.30;94.60;;;;;;4924239;29;20023;-74
2022/06/09 08:03:55;;;;;;;1.10;1.10;;;;;;;;;;4925769;29;20047;-74
2022/06/09 08:06:22;;;;;;;6.82;1.77;;;;;;;;;;4925818;29;20028;-73
2022/06/09 08:08:48;;;;;;;1.77;1.10;;;;;;;;;;4925689;29;20580;-76
2022/06/09 08:11:14;;;;;;;1.48;1.23;;;;;;;;;;4924750;29;20122;-73
2022/06/09 08:13:40;;;;;;;0.80;0.80;;;;;;;;;;4924548;29;20154;-73
2022/06/09 08:16:06;;;;;;;3.67;0.90;;;;;;;;;;4925251;29;20084;-73
2022/06/09 08:18:32;;;;;;;2.90;1.20;;;;;;;;;;4927197;29;20086;-75
2022/06/09 08:20:58;;;;;;;4.30;1.00;;;;;;;;;;4923356;29;20040;-76
2022/06/09 08:23:26;;;;;;;2.22;0.82;;;;;;;;;;4926768;29;20460;-73
2022/06/09 08:25:54;;;;;;;;;;;17.00;91.70;;;;;;4925888;29;20032;-75
2022/06/09 08:28:21;;;;;;;0.70;0.70;;;;;;;;;;4926231;29;19919;-75
2022/06/09 08:30:51;;;;;;;0.90;0.80;;;;;;;;;;4923763;29;20027;-72
2022/06/09 08:33:18;;;;;;;1.70;0.90;;;;;;;;;;4925502;29;20020;-77
2022/06/09 08:35:44;;;;;;;1.00;0.90;;;;;;;;;;4926634;29;20078;-80
2022/06/09 08:38:10;;;;;;;2.55;1.00;;;;;;;;;;4928165;29;20404;-77
2022/06/09 08:40:42;;;;;;;1.50;0.77;;;;;;;;;;4923066;29;20036;-80
2022/06/09 08:43:11;;;;;;;3.70;0.93;;;;;;;;;;4924512;29;20027;-78
2022/06/09 08:45:38;;;;;;;2.80;0.60;;;;;;;;;;4925678;29;20038;-77
2022/06/09 08:48:05;;;;;;;3.60;0.75;;;;;;;;;;4925553;29;20024;-76
2022/06/09 08:50:33;;;;;;;1.95;0.60;;;;;;;;;;4923983;29;20042;-76
2022/06/09 08:52:59;;;;;;;3.30;0.70;;;;;;;;;;4924931;29;20027;-78
2022/06/09 08:55:36;;;;;;;5.43;1.58;;;18.00;87.20;;;;;;4927030;29;20039;-81
2022/06/09 08:58:23;;;;;;;1.85;0.80;;;18.20;86.60;;;;;;4924978;29;20035;-77
2022/06/09 09:01:10;;;;;;;4.72;1.05;;;;;;;;;;4921046;29;20416;-76
2022/06/09 09:03:42;;;;;;;2.27;1.37;;;18.30;85.70;;;;;;4922946;29;20126;-74
2022/06/09 09:06:17;;;;;;;1.50;0.80;;;;;;;;;;4924932;29;20138;-75
2022/06/09 09:08:43;;;;;;;3.03;0.73;;;;;;;;;;4925759;29;20150;-67
2022/06/09 09:11:09;;;;;;;2.70;0.80;;;;;;;;;;4923932;29;20119;-75
2022/06/09 09:13:44;;;;;;;1.55;1.02;;;;;;;;;;4923448;29;20040;-73
2022/06/09 09:16:19;;;;;;;1.40;0.80;;;18.20;85.00;;;;;;4926617;29;20039;-73
2022/06/09 09:18:53;;;;;;;3.97;1.30;;;;;;;;;;4924330;29;20039;-73
2022/06/09 09:21:21;;;;;;;1.00;0.90;;;;;;;;;;4922212;29;20040;-79
2022/06/09 09:23:50;;;;;;;2.03;0.70;;;17.70;87.90;;;;;;4923745;29;20027;-75
2022/06/09 09:26:36;;;;;;;3.38;0.90;;;;;;;;;;4928279;29;20035;-75
2022/06/09 09:29:10;;;;;;;3.10;2.15;;;;;;;;;;4926953;29;20087;-76
2022/06/09 09:31:43;;;;;;;1.60;1.00;;;;;;;;;;4923896;29;20481;-76
2022/06/09 09:34:21;;;;;;;1.52;0.80;;;;;;;;;;4926200;29;20031;-75
2022/06/09 09:36:49;;;;;;;2.55;1.08;;;;;;;;;;4921774;29;20405;-75
2022/06/09 09:39:30;;;;;;;2.88;0.70;;;17.80;90.20;;;;;;4923015;29;20074;-73
2022/06/09 09:41:57;;;;;;;1.58;1.00;;;;;;;;;;4922755;29;21687;-74
2022/06/09 09:44:23;;;;;;;;;;;;;;;;;;4926726;29;20032;-74
2022/06/09 09:46:58;;;;;;;1.98;1.00;;;;;;;;;;4926636;29;20396;-73
2022/06/09 09:49:40;;;;;;;3.00;0.60;;;18.70;85.50;;;;;;4921092;29;20056;-74
2022/06/09 09:52:33;;;;;;;4.03;0.90;;;;;;;;;;4922348;29;20032;-74
2022/06/09 09:54:59;;;;;;;3.28;0.90;;;;;;;;;;4923652;29;20050;-74
2022/06/09 09:57:28;;;;;;;1.60;0.98;;;;;;;;;;4925968;29;20095;-73
2022/06/09 09:59:55;;;;;;;0.77;0.45;;;;;;;;;;4927091;29;20394;-74
2022/06/09 10:08:48;;;;;;;4.13;0.95;;;;;;;;;;4949861;28;20697;-74
2022/06/09 10:10:58;;;;;;;3.80;1.63;;;;;;;;;;4930880;28;20031;-74
2022/06/09 10:13:30;;;;;;;3.38;0.77;;;;;;;;;;4946097;28;20041;-73
2022/06/09 10:15:56;;;;;;;1.25;0.50;;;;;;;;;;4945573;28;20047;-74
2022/06/09 10:18:23;;;;;;;1.20;0.68;;;;;;;;;;4946642;28;20045;-74
2022/06/09 10:21:02;;;;;;;1.50;0.50;;;;;;;;;;4941505;28;20167;-74
2022/06/09 10:23:36;;;;;;;2.17;0.93;;;;;;;;;;4950310;28;20035;-75
2022/06/09 10:26:08;;;;;;;0.93;0.60;;;;;;;;;;4929255;28;20955;-76
2022/06/09 10:28:39;;;;;;;1.42;0.63;;;;;;;;;;4949440;28;20051;-75
2022/06/09 10:31:23;;;;;;;1.70;0.43;;;;;;;;;;4943087;28;20035;-75
2022/06/09 10:33:53;;;;;;;2.30;0.50;;;;;;;;;;4946264;28;20089;-74
2022/06/09 10:36:28;;;;;;;0.65;0.60;;;;;;;;;;4949512;28;20047;-73
2022/06/09 10:38:56;;;;;;;4.45;0.98;;;;;;;;;;4944289;28;20027;-74
2022/06/09 10:41:35;;;;;;;0.82;0.82;;;;;;;;;;4941195;28;20046;-74
2022/06/09 10:44:07;;;;;;;2.78;0.77;;;;;;;;;;4927259;29;20024;-74
2022/06/09 10:55:33;;;;;;;2.38;1.58;;;;;;;;;;4909797;29;20092;-73
2022/06/09 10:58:04;;;;;;;1.90;0.60;;;;;;;;;;4914647;29;20032;-75
2022/06/09 11:00:35;;;;;;;6.03;0.68;;;;;;;;;;4909980;29;20036;-74
2022/06/09 11:03:10;;;;;;;2.28;0.73;;;;;;;;;;4905702;29;20445;-74
2022/06/09 11:05:53;;;;;;;3.53;0.75;;;21.80;66.20;;;;;;4917320;29;20027;-75
2022/06/09 11:08:26;;;;;;;2.80;0.32;;;;;;;;;;4908885;29;20036;-75
2022/06/09 11:11:22;;;;;;;5.18;1.30;;;22.10;65.20;;;;;;4907367;29;20072;-74
2022/06/09 11:14:07;;;;;;;0.70;0.40;;;22.30;64.20;;;;;;4905362;29;20446;-74
2022/06/09 11:16:42;;;;;;;1.67;0.50;;;;;;;;;;4895397;29;20048;-75
2022/06/09 11:19:21;;;;;;;2.53;0.50;;;;;;;;;;4906086;29;20051;-75
2022/06/09 11:21:57;;;;;;;3.90;0.65;;;;;;;;;;4913857;29;20130;-74
2022/06/09 11:24:30;;;;;;;2.90;0.57;;;;;;;;;;4908691;29;23427;-74
2022/06/09 11:27:07;;;;;;;4.22;1.17;;;;;;;;;;4917991;29;20051;-73
2022/06/09 11:29:37;;;;;;;0.73;0.47;;;;;;;;;;4923782;29;20573;-74
2022/06/09 11:32:09;;;;;;;2.53;1.15;;;;;;;;;;4927218;29;20042;-73
2022/06/09 11:34:47;;;;;;;0.68;0.30;;;;;;;;;;4926713;29;20043;-66
2022/06/09 11:37:32;;;;;;;3.38;0.50;;;;;;;;;;4927606;29;20098;-68
2022/06/09 11:40:01;;;;;;;2.38;0.73;;;;;;;;;;4924774;29;20512;-67
2022/06/09 11:42:30;;;;;;;1.52;0.65;;;;;;;;;;4920980;29;20072;-71
2022/06/09 11:44:58;;;;;;;3.78;0.70;;;;;;;;;;4927180;29;20599;-66
2022/06/09 11:47:26;;;;;;;1.02;0.30;;;;;;;;;;4929427;29;20114;-68
2022/06/09 11:49:58;;;;;;;1.67;0.40;;;;;;;;;;4925159;29;20039;-68
2022/06/09 11:52:30;;;;;;;2.10;0.50;;;;;;;;;;4925410;29;20188;-67
2022/06/09 11:54:56;;;;;;;1.98;0.50;;;;;;;;;;4927930;29;20523;-69
2022/06/09 11:57:34;;;;;;;3.03;0.90;;;;;;;;;;4925935;29;20028;-67
2022/06/09 12:00:00;;;;;;;1.73;0.50;;;;;;;;;;4923458;29;20131;-67
2022/06/09 12:02:32;;;;;;;1.67;0.57;;;;;;;;;;4926558;29;20143;-67
2022/06/09 12:05:05;;;;;;;3.33;0.65;;;;;;;;;;4927608;29;20117;-67
2022/06/09 12:07:57;;;;;;;3.92;0.52;;;;;;;;;;4927023;29;20035;-67
2022/06/09 12:10:23;;;;;;;1.67;0.60;;;;;;;;;;4919789;29;20837;-68
2022/06/09 12:13:04;;;;;;;4.57;0.93;;;;;;;;;;4924285;29;20027;-67
2022/06/09 12:15:35;;;;;;;2.45;0.45;;;;;;;;;;4926227;29;20051;-67
2022/06/09 12:18:15;;;;;;;1.88;0.63;;;;;;;;;;4928138;29;20405;-70
2022/06/09 12:20:47;;;;;;;0.85;0.45;;;;;;;;;;4923248;29;20035;-69
2022/06/09 12:23:25;;;;;;;3.83;0.70;;;;;;;;;;4927047;29;20063;-68
2022/06/09 12:26:09;;;;;;;2.83;1.05;;;21.70;57.70;;;;;;4925665;29;20103;-69
2022/06/09 12:28:56;;;;;;;1.45;0.63;;;;;;;;;;4927110;29;20031;-68
2022/06/09 12:31:24;;;;;;;1.00;0.32;;;;;;;;;;4924231;29;20126;-69
2022/06/09 12:34:01;;;;;;;0.50;0.30;;;;;;;;;;4924766;29;20405;-67
2022/06/09 12:36:39;;;;;;;3.35;0.50;;;;;;;;;;4925872;29;20030;-68
2022/06/09 12:39:21;;;;;;;3.45;0.40;;;;;;;;;;4924676;29;20513;-69
2022/06/09 12:41:52;;;;;;;2.15;0.60;;;;;;;;;;4925103;29;20067;-68
2022/06/09 12:44:24;;;;;;;0.32;0.30;;;;;;;;;;4932553;29;20038;-67
2022/06/09 12:46:58;;;;;;;1.30;0.47;;;;;;;;;;4926390;29;20509;-68
2022/06/09 12:49:30;;;;;;;4.93;0.88;;;;;;;;;;4922894;29;20043;-68
2022/06/09 12:51:56;;;;;;;0.88;0.70;;;22.10;74.60;;;;;;4926812;29;20044;-67
2022/06/09 12:54:36;;;;;;;5.55;0.47;;;;;;;;;;4923525;29;20132;-67
2022/06/09 12:57:06;;;;;;;1.60;0.95;;;21.70;59.30;;;;;;4926103;29;20024;-73
2022/06/09 12:59:36;;;;;;;5.25;0.65;;;;;;;;;;4924364;29;20038;-74
2022/06/09 13:02:02;;;;;;;3.83;0.50;;;;;;;;;;4927312;29;20032;-73
2022/06/09 13:04:29;;;;;;;1.55;1.00;;;;;;;;;;4924616;29;20119;-74
2022/06/09 13:06:56;;;;;;;0.98;0.55;;;;;;;;;;4925884;29;20032;-73
2022/06/09 13:09:24;;;;;;;1.15;1.05;;;;;;;;;;4923296;29;20047;-74
2022/06/09 13:14:36;;;;;;;2.58;0.50;;;;;;;;;;4926803;29;20117;-73
2022/06/09 13:17:14;;;;;;;0.40;0.20;;;21.70;55.90;;;;;;4928060;29;20024;-73
2022/06/09 13:19:40;;;;;;;3.58;0.50;;;21.70;77.30;;;;;;4923271;29;20035;-74
2022/06/09 13:22:08;;;;;;;4.03;0.85;;;;;;;;;;4924998;29;20055;-74
2022/06/09 13:24:35;;;;;;;4.38;0.88;;;;;;;;;;4926576;29;20090;-72
2022/06/09 13:27:02;;;;;;;2.00;0.50;;;;;;;;;;4922498;29;20031;-73
2022/06/09 13:29:30;;;;;;;1.45;0.45;;;;;;;;;;4923878;29;20082;-73
2022/06/09 13:32:17;;;;;;;2.00;0.90;;;;;;;;;;4926121;29;20046;-73
2022/06/09 13:34:44;;;;;;;1.45;0.65;;;;;;;;;;4924790;29;20791;-72
2022/06/09 13:37:18;;;;;;;2.38;0.40;;;;;;;;;;4926767;29;20454;-73
2022/06/09 13:40:00;;;;;;;3.13;0.52;;;21.90;56.50;;;;;;4920143;29;20555;-71
2022/06/09 13:42:28;;;;;;;2.67;0.65;;;21.80;57.10;;;;;;4921996;29;20027;-71
2022/06/09 13:44:54;;;;;;;0.68;0.50;;;;;;;;;;4926268;29;20064;-73
2022/06/09 13:47:22;;;;;;;2.75;1.00;;;;;;;;;;4927290;28;20066;-73
2022/06/09 13:49:48;;;;;;;1.55;0.30;;;;;;;;;;4920873;29;20040;-72
2022/06/09 13:52:26;;;;;;;5.18;1.23;;;;;;;;;;4925504;29;20125;-72
2022/06/09 13:54:55;;;;;;;2.15;1.05;;;;;;;;;;4929459;29;20682;-73
2022/06/09 13:57:23;;;;;;;0.60;0.50;;;;;;;;;;4930483;29;20453;-74
2022/06/09 13:59:49;;;;;;;2.85;0.65;;;;;;;;;;4926108;29;20071;-74
2022/06/09 14:02:16;;;;;;;0.40;0.25;;;;;;;;;;4929221;29;20131;-74
2022/06/09 14:04:42;;;;;;;2.38;0.60;;;;;;;;;;4929911;29;20075;-73
2022/06/09 14:07:15;;;;;;;4.13;1.73;;;;;;;;;;4930062;29;20219;-72
2022/06/09 14:09:41;;;;;;;1.48;0.40;;;;;;;;;;4923717;29;20175;-73
2022/06/09 14:12:09;;;;;;;1.83;0.50;;;;;;;;;;4927784;29;20127;-76
2022/06/09 14:14:35;;;;;;;0.30;0.30;;;;;;;;;;4928579;29;20066;-74
2022/06/09 14:17:01;;;;;;;2.47;0.30;;;;;;;;;;4929394;29;20030;-74
2022/06/09 14:19:27;;;;;;;0.98;0.50;;;;;;;;;;4925025;29;20568;-74
2022/06/09 14:21:53;;;;;;;2.40;0.55;;;;;;;;;;4926866;29;20043;-75
2022/06/09 14:24:21;;;;;;;6.82;0.70;;;;;;;;;;4926806;29;20039;-74
2022/06/09 14:26:48;;;;;;;1.30;0.47;;;;;;;;;;4928984;29;20801;-73
2022/06/09 14:29:14;;;;;;;;;;;;;;;;;;4926478;29;20539;-74
2022/06/09 14:31:40;;;;;;;2.17;0.60;;;;;;;;;;4929001;29;19911;-73
2022/06/09 14:34:06;;;;;;;2.95;1.20;;;;;;;;;;4926426;29;20027;-76
2022/06/09 14:36:33;;;;;;;1.00;0.70;;;;;;;;;;4928785;29;20023;-72
2022/06/09 14:39:00;;;;;;;2.55;0.63;;;;;;;;;;4927951;29;20477;-71
2022/06/09 14:41:26;;;;;;;0.82;0.60;;;;;;;;;;4927525;29;20034;-71
2022/06/09 14:43:53;;;;;;;0.95;0.40;;;;;;;;;;4925276;29;20079;-72
2022/06/09 14:46:22;;;;;;;4.18;0.73;;;;;;;;;;4928274;29;20054;-71
2022/06/09 14:48:48;;;;;;;1.27;0.50;;;;;;;;;;4929756;29;20146;-73
2022/06/09 14:51:14;;;;;;;2.42;0.95;;;;;;;;;;4925658;29;20024;-70
2022/06/09 14:53:40;;;;;;;0.38;0.38;;;;;;;;;;4927419;29;20038;-71
2022/06/09 14:56:06;;;;;;;1.60;0.85;;;;;;;;;;4928468;29;20031;-71
2022/06/09 14:58:33;;;;;;;1.50;0.75;;;;;;;;;;4929030;29;20039;-71
2022/06/09 15:00:59;;;;;;;2.60;1.02;;;;;;;;;;4924606;29;20126;-71
2022/06/09 15:03:25;;;;;;;3.53;0.90;;;;;;;;;;4926115;29;20035;-71